sensor_id;sensor_type;location;lat;lon;timestamp;P1;durP1;ratioP1;P2;durP2;ratioP2
24335;SDS011;75016;52.400;16.880;2024-01-07T00:00:24;5.80;;;3.50;;
24335;SDS011;75016;52.400;16.880;2024-01-07T00:03:11;5.80;;;3.70;;
24335;SDS011;75016;52.400;16.880;2024-01-07T00:05:37;6.00;;;3.30;;
24335;SDS011;75016;52.400;16.880;2024-01-07T00:08:04;5.00;;;3.50;;
24335;SDS011;75016;52.400;16.880;2024-01-07T00:10:31;6.30;;;3.70;;
24335;SDS011;75016;52.400;16.880;2024-01-07T00:12:57;7.40;;;3.40;;
24335;SDS011;75016;52.400;16.880;2024-01-07T00:15:24;6.70;;;3.40;;
24335;SDS011;75016;52.400;16.880;2024-01-07T00:17:53;7.10;;;3.90;;
24335;SDS011;75016;52.400;16.880;2024-01-07T00:20:19;7.00;;;3.70;;
24335;SDS011;75016;52.400;16.880;2024-01-07T00:22:46;5.60;;;3.50;;
24335;SDS011;75016;52.400;16.880;2024-01-07T00:25:12;5.10;;;3.50;;
24335;SDS011;75016;52.400;16.880;2024-01-07T00:27:39;5.40;;;3.40;;
24335;SDS011;75016;52.400;16.880;2024-01-07T00:30:06;7.20;;;3.60;;
24335;SDS011;75016;52.400;16.880;2024-01-07T00:32:34;7.00;;;4.00;;
24335;SDS011;75016;52.400;16.880;2024-01-07T00:35:01;5.50;;;3.30;;
24335;SDS011;75016;52.400;16.880;2024-01-07T00:37:28;5.10;;;3.00;;
24335;SDS011;75016;52.400;16.880;2024-01-07T00:39:55;6.00;;;3.70;;
24335;SDS011;75016;52.400;16.880;2024-01-07T00:42:21;4.50;;;3.00;;
24335;SDS011;75016;52.400;16.880;2024-01-07T00:44:48;7.20;;;3.40;;
24335;SDS011;75016;52.400;16.880;2024-01-07T00:47:14;8.30;;;3.70;;
24335;SDS011;75016;52.400;16.880;2024-01-07T00:49:41;5.50;;;3.10;;
24335;SDS011;75016;52.400;16.880;2024-01-07T00:52:07;5.40;;;2.90;;
24335;SDS011;75016;52.400;16.880;2024-01-07T00:54:35;4.80;;;3.10;;
24335;SDS011;75016;52.400;16.880;2024-01-07T00:57:02;3.80;;;2.70;;
24335;SDS011;75016;52.400;16.880;2024-01-07T00:59:28;6.80;;;3.40;;
24335;SDS011;75016;52.400;16.880;2024-01-07T01:01:56;5.90;;;3.30;;
24335;SDS011;75016;52.400;16.880;2024-01-07T01:04:22;6.60;;;3.70;;
24335;SDS011;75016;52.400;16.880;2024-01-07T01:06:49;4.40;;;2.80;;
24335;SDS011;75016;52.400;16.880;2024-01-07T01:09:15;5.00;;;3.10;;
24335;SDS011;75016;52.400;16.880;2024-01-07T01:11:42;4.60;;;2.80;;
24335;SDS011;75016;52.400;16.880;2024-01-07T01:14:08;6.20;;;3.40;;
24335;SDS011;75016;52.400;16.880;2024-01-07T01:16:35;4.60;;;2.80;;
24335;SDS011;75016;52.400;16.880;2024-01-07T01:19:01;6.60;;;2.60;;
24335;SDS011;75016;52.400;16.880;2024-01-07T01:21:28;4.10;;;2.70;;
24335;SDS011;75016;52.400;16.880;2024-01-07T01:23:54;5.80;;;3.00;;
24335;SDS011;75016;52.400;16.880;2024-01-07T01:26:20;4.20;;;2.80;;
24335;SDS011;75016;52.400;16.880;2024-01-07T01:28:47;6.50;;;3.20;;
24335;SDS011;75016;52.400;16.880;2024-01-07T01:31:14;5.80;;;2.90;;
24335;SDS011;75016;52.400;16.880;2024-01-07T01:33:41;5.60;;;2.90;;
24335;SDS011;75016;52.400;16.880;2024-01-07T01:36:07;5.50;;;3.10;;
24335;SDS011;75016;52.400;16.880;2024-01-07T01:38:34;4.60;;;2.90;;
24335;SDS011;75016;52.400;16.880;2024-01-07T01:41:01;5.70;;;3.10;;
24335;SDS011;75016;52.400;16.880;2024-01-07T01:43:28;4.50;;;2.80;;
24335;SDS011;75016;52.400;16.880;2024-01-07T01:45:55;4.80;;;3.10;;
24335;SDS011;75016;52.400;16.880;2024-01-07T01:48:22;4.80;;;3.00;;
24335;SDS011;75016;52.400;16.880;2024-01-07T01:50:50;6.40;;;3.00;;
24335;SDS011;75016;52.400;16.880;2024-01-07T01:53:20;5.90;;;3.40;;
24335;SDS011;75016;52.400;16.880;2024-01-07T01:55:47;4.30;;;2.90;;
24335;SDS011;75016;52.400;16.880;2024-01-07T01:58:13;4.70;;;3.00;;
24335;SDS011;75016;52.400;16.880;2024-01-07T02:00:41;6.30;;;3.00;;
24335;SDS011;75016;52.400;16.880;2024-01-07T02:03:07;5.40;;;3.20;;
24335;SDS011;75016;52.400;16.880;2024-01-07T02:05:34;4.50;;;3.10;;
24335;SDS011;75016;52.400;16.880;2024-01-07T02:08:01;4.20;;;3.10;;
24335;SDS011;75016;52.400;16.880;2024-01-07T02:10:29;5.50;;;3.20;;
24335;SDS011;75016;52.400;16.880;2024-01-07T02:13:00;5.70;;;3.20;;
24335;SDS011;75016;52.400;16.880;2024-01-07T02:15:27;6.60;;;3.50;;
24335;SDS011;75016;52.400;16.880;2024-01-07T02:17:53;6.10;;;3.10;;
24335;SDS011;75016;52.400;16.880;2024-01-07T02:20:20;5.10;;;3.20;;
24335;SDS011;75016;52.400;16.880;2024-01-07T02:22:47;4.90;;;2.80;;
24335;SDS011;75016;52.400;16.880;2024-01-07T02:25:14;6.40;;;3.40;;
24335;SDS011;75016;52.400;16.880;2024-01-07T02:27:40;4.90;;;2.90;;
24335;SDS011;75016;52.400;16.880;2024-01-07T02:30:07;5.30;;;3.10;;
24335;SDS011;75016;52.400;16.880;2024-01-07T02:32:34;4.70;;;3.30;;
24335;SDS011;75016;52.400;16.880;2024-01-07T02:35:02;4.70;;;2.80;;
24335;SDS011;75016;52.400;16.880;2024-01-07T02:37:29;4.90;;;2.60;;
24335;SDS011;75016;52.400;16.880;2024-01-07T02:39:55;3.50;;;2.60;;
24335;SDS011;75016;52.400;16.880;2024-01-07T02:42:22;3.70;;;2.60;;
24335;SDS011;75016;52.400;16.880;2024-01-07T02:44:48;4.70;;;2.60;;
24335;SDS011;75016;52.400;16.880;2024-01-07T02:47:15;6.00;;;2.80;;
24335;SDS011;75016;52.400;16.880;2024-01-07T02:49:41;3.30;;;2.20;;
24335;SDS011;75016;52.400;16.880;2024-01-07T02:52:08;3.90;;;2.40;;
24335;SDS011;75016;52.400;16.880;2024-01-07T02:54:34;3.60;;;2.30;;
24335;SDS011;75016;52.400;16.880;2024-01-07T02:57:01;3.80;;;2.50;;
24335;SDS011;75016;52.400;16.880;2024-01-07T02:59:27;3.70;;;2.40;;
24335;SDS011;75016;52.400;16.880;2024-01-07T03:01:54;3.60;;;2.20;;
24335;SDS011;75016;52.400;16.880;2024-01-07T03:04:20;4.70;;;2.50;;
24335;SDS011;75016;52.400;16.880;2024-01-07T03:06:47;5.30;;;3.00;;
24335;SDS011;75016;52.400;16.880;2024-01-07T03:09:13;4.20;;;2.70;;
24335;SDS011;75016;52.400;16.880;2024-01-07T03:11:40;3.70;;;2.60;;
24335;SDS011;75016;52.400;16.880;2024-01-07T03:14:10;4.30;;;2.30;;
24335;SDS011;75016;52.400;16.880;2024-01-07T03:16:36;5.60;;;2.70;;
24335;SDS011;75016;52.400;16.880;2024-01-07T03:19:03;4.60;;;2.60;;
24335;SDS011;75016;52.400;16.880;2024-01-07T03:21:30;4.20;;;2.80;;
24335;SDS011;75016;52.400;16.880;2024-01-07T03:23:57;22.90;;;3.40;;
24335;SDS011;75016;52.400;16.880;2024-01-07T03:26:24;4.70;;;2.70;;
24335;SDS011;75016;52.400;16.880;2024-01-07T03:28:50;4.60;;;2.40;;
24335;SDS011;75016;52.400;16.880;2024-01-07T03:31:18;3.20;;;2.30;;
24335;SDS011;75016;52.400;16.880;2024-01-07T03:33:45;4.00;;;2.50;;
24335;SDS011;75016;52.400;16.880;2024-01-07T03:36:13;5.30;;;2.60;;
24335;SDS011;75016;52.400;16.880;2024-01-07T03:38:40;3.60;;;2.40;;
24335;SDS011;75016;52.400;16.880;2024-01-07T03:41:07;2.70;;;2.30;;
24335;SDS011;75016;52.400;16.880;2024-01-07T03:43:34;4.50;;;2.60;;
24335;SDS011;75016;52.400;16.880;2024-01-07T03:46:01;4.00;;;2.30;;
24335;SDS011;75016;52.400;16.880;2024-01-07T03:48:27;5.80;;;2.40;;
24335;SDS011;75016;52.400;16.880;2024-01-07T03:50:54;3.80;;;2.40;;
24335;SDS011;75016;52.400;16.880;2024-01-07T03:53:20;3.50;;;2.50;;
24335;SDS011;75016;52.400;16.880;2024-01-07T03:55:47;6.20;;;2.50;;
24335;SDS011;75016;52.400;16.880;2024-01-07T03:58:14;5.70;;;2.40;;
24335;SDS011;75016;52.400;16.880;2024-01-07T04:00:40;4.60;;;2.30;;
24335;SDS011;75016;52.400;16.880;2024-01-07T04:03:06;4.50;;;2.60;;
24335;SDS011;75016;52.400;16.880;2024-01-07T04:05:33;5.30;;;2.70;;
24335;SDS011;75016;52.400;16.880;2024-01-07T04:08:03;5.30;;;2.80;;
24335;SDS011;75016;52.400;16.880;2024-01-07T04:10:30;4.80;;;2.70;;
24335;SDS011;75016;52.400;16.880;2024-01-07T04:12:56;4.30;;;2.40;;
24335;SDS011;75016;52.400;16.880;2024-01-07T04:15:23;4.20;;;2.60;;
24335;SDS011;75016;52.400;16.880;2024-01-07T04:17:50;4.10;;;2.50;;
24335;SDS011;75016;52.400;16.880;2024-01-07T04:20:16;3.90;;;2.50;;
24335;SDS011;75016;52.400;16.880;2024-01-07T04:22:43;4.30;;;2.70;;
24335;SDS011;75016;52.400;16.880;2024-01-07T04:25:09;3.60;;;2.50;;
24335;SDS011;75016;52.400;16.880;2024-01-07T04:27:37;4.20;;;2.50;;
24335;SDS011;75016;52.400;16.880;2024-01-07T04:30:04;4.50;;;2.70;;
24335;SDS011;75016;52.400;16.880;2024-01-07T04:32:32;4.20;;;2.60;;
24335;SDS011;75016;52.400;16.880;2024-01-07T04:34:58;3.80;;;2.60;;
24335;SDS011;75016;52.400;16.880;2024-01-07T04:37:25;4.10;;;2.60;;
24335;SDS011;75016;52.400;16.880;2024-01-07T04:39:51;3.80;;;2.60;;
24335;SDS011;75016;52.400;16.880;2024-01-07T04:42:18;4.90;;;3.10;;
24335;SDS011;75016;52.400;16.880;2024-01-07T04:44:44;6.80;;;3.20;;
24335;SDS011;75016;52.400;16.880;2024-01-07T04:47:27;4.40;;;2.60;;
24335;SDS011;75016;52.400;16.880;2024-01-07T04:49:57;5.30;;;2.80;;
24335;SDS011;75016;52.400;16.880;2024-01-07T04:52:24;4.20;;;2.60;;
24335;SDS011;75016;52.400;16.880;2024-01-07T04:54:52;4.00;;;2.50;;
24335;SDS011;75016;52.400;16.880;2024-01-07T04:57:19;3.40;;;2.50;;
24335;SDS011;75016;52.400;16.880;2024-01-07T04:59:46;3.00;;;2.50;;
24335;SDS011;75016;52.400;16.880;2024-01-07T05:02:14;3.20;;;2.50;;
24335;SDS011;75016;52.400;16.880;2024-01-07T05:04:41;3.30;;;2.30;;
24335;SDS011;75016;52.400;16.880;2024-01-07T05:07:08;3.70;;;2.60;;
24335;SDS011;75016;52.400;16.880;2024-01-07T05:09:35;4.10;;;2.40;;
24335;SDS011;75016;52.400;16.880;2024-01-07T05:12:01;4.60;;;2.60;;
24335;SDS011;75016;52.400;16.880;2024-01-07T05:14:29;2.50;;;2.30;;
24335;SDS011;75016;52.400;16.880;2024-01-07T05:16:55;3.90;;;2.40;;
24335;SDS011;75016;52.400;16.880;2024-01-07T05:19:22;4.60;;;2.30;;
24335;SDS011;75016;52.400;16.880;2024-01-07T05:21:49;3.70;;;2.50;;
24335;SDS011;75016;52.400;16.880;2024-01-07T05:24:15;3.00;;;2.40;;
24335;SDS011;75016;52.400;16.880;2024-01-07T05:26:42;4.90;;;2.60;;
24335;SDS011;75016;52.400;16.880;2024-01-07T05:29:10;3.70;;;2.40;;
24335;SDS011;75016;52.400;16.880;2024-01-07T05:31:39;4.00;;;2.50;;
24335;SDS011;75016;52.400;16.880;2024-01-07T05:34:06;5.20;;;2.60;;
24335;SDS011;75016;52.400;16.880;2024-01-07T05:36:32;4.10;;;2.60;;
24335;SDS011;75016;52.400;16.880;2024-01-07T05:38:59;4.60;;;2.70;;
24335;SDS011;75016;52.400;16.880;2024-01-07T05:41:26;3.60;;;2.60;;
24335;SDS011;75016;52.400;16.880;2024-01-07T05:43:52;3.40;;;2.40;;
24335;SDS011;75016;52.400;16.880;2024-01-07T05:46:19;3.60;;;2.60;;
24335;SDS011;75016;52.400;16.880;2024-01-07T05:48:46;3.50;;;2.60;;
24335;SDS011;75016;52.400;16.880;2024-01-07T05:51:14;5.50;;;3.10;;
24335;SDS011;75016;52.400;16.880;2024-01-07T05:53:41;5.50;;;3.20;;
24335;SDS011;75016;52.400;16.880;2024-01-07T05:56:09;5.20;;;3.00;;
24335;SDS011;75016;52.400;16.880;2024-01-07T05:58:35;4.20;;;2.80;;
24335;SDS011;75016;52.400;16.880;2024-01-07T06:01:02;5.50;;;3.10;;
24335;SDS011;75016;52.400;16.880;2024-01-07T06:03:29;4.50;;;3.20;;
24335;SDS011;75016;52.400;16.880;2024-01-07T06:05:55;4.40;;;3.20;;
24335;SDS011;75016;52.400;16.880;2024-01-07T06:08:22;4.80;;;3.10;;
24335;SDS011;75016;52.400;16.880;2024-01-07T06:10:48;5.10;;;3.20;;
24335;SDS011;75016;52.400;16.880;2024-01-07T06:13:15;5.00;;;3.20;;
24335;SDS011;75016;52.400;16.880;2024-01-07T06:15:41;6.00;;;3.50;;
24335;SDS011;75016;52.400;16.880;2024-01-07T06:18:08;5.50;;;3.50;;
24335;SDS011;75016;52.400;16.880;2024-01-07T06:20:34;5.10;;;3.70;;
24335;SDS011;75016;52.400;16.880;2024-01-07T06:23:01;6.60;;;3.60;;
24335;SDS011;75016;52.400;16.880;2024-01-07T06:25:27;6.70;;;3.90;;
24335;SDS011;75016;52.400;16.880;2024-01-07T06:27:54;6.70;;;3.50;;
24335;SDS011;75016;52.400;16.880;2024-01-07T06:30:20;5.60;;;3.80;;
24335;SDS011;75016;52.400;16.880;2024-01-07T06:32:47;6.70;;;4.00;;
24335;SDS011;75016;52.400;16.880;2024-01-07T06:35:14;6.10;;;3.80;;
24335;SDS011;75016;52.400;16.880;2024-01-07T06:37:41;6.70;;;4.20;;
24335;SDS011;75016;52.400;16.880;2024-01-07T06:40:07;7.10;;;4.60;;
24335;SDS011;75016;52.400;16.880;2024-01-07T06:42:34;7.70;;;3.80;;
24335;SDS011;75016;52.400;16.880;2024-01-07T06:45:01;7.60;;;4.60;;
24335;SDS011;75016;52.400;16.880;2024-01-07T06:47:28;7.40;;;4.60;;
24335;SDS011;75016;52.400;16.880;2024-01-07T06:49:54;6.90;;;4.10;;
24335;SDS011;75016;52.400;16.880;2024-01-07T06:52:21;8.60;;;4.80;;
24335;SDS011;75016;52.400;16.880;2024-01-07T06:54:47;6.00;;;4.40;;
24335;SDS011;75016;52.400;16.880;2024-01-07T06:57:14;6.20;;;4.60;;
24335;SDS011;75016;52.400;16.880;2024-01-07T06:59:40;6.70;;;4.90;;
24335;SDS011;75016;52.400;16.880;2024-01-07T07:02:07;7.40;;;4.40;;
24335;SDS011;75016;52.400;16.880;2024-01-07T07:04:33;6.70;;;4.00;;
24335;SDS011;75016;52.400;16.880;2024-01-07T07:07:00;8.70;;;4.60;;
24335;SDS011;75016;52.400;16.880;2024-01-07T07:09:26;7.30;;;4.80;;
24335;SDS011;75016;52.400;16.880;2024-01-07T07:11:53;7.30;;;4.60;;
24335;SDS011;75016;52.400;16.880;2024-01-07T07:14:20;7.00;;;5.00;;
24335;SDS011;75016;52.400;16.880;2024-01-07T07:16:46;9.00;;;4.90;;
24335;SDS011;75016;52.400;16.880;2024-01-07T07:19:13;8.00;;;4.90;;
24335;SDS011;75016;52.400;16.880;2024-01-07T07:21:41;8.00;;;4.90;;
24335;SDS011;75016;52.400;16.880;2024-01-07T07:24:08;8.30;;;5.00;;
24335;SDS011;75016;52.400;16.880;2024-01-07T07:26:34;7.00;;;4.80;;
24335;SDS011;75016;52.400;16.880;2024-01-07T07:29:02;8.90;;;5.10;;
24335;SDS011;75016;52.400;16.880;2024-01-07T07:31:28;8.10;;;5.30;;
24335;SDS011;75016;52.400;16.880;2024-01-07T07:33:55;6.90;;;4.60;;
24335;SDS011;75016;52.400;16.880;2024-01-07T07:36:21;9.40;;;5.30;;
24335;SDS011;75016;52.400;16.880;2024-01-07T07:38:48;7.90;;;4.80;;
24335;SDS011;75016;52.400;16.880;2024-01-07T07:41:14;8.20;;;5.00;;
24335;SDS011;75016;52.400;16.880;2024-01-07T07:43:41;7.10;;;4.90;;
24335;SDS011;75016;52.400;16.880;2024-01-07T07:46:07;7.80;;;5.00;;
24335;SDS011;75016;52.400;16.880;2024-01-07T07:48:34;8.60;;;5.60;;
24335;SDS011;75016;52.400;16.880;2024-01-07T07:51:00;7.90;;;5.20;;
24335;SDS011;75016;52.400;16.880;2024-01-07T07:53:27;7.80;;;4.90;;
24335;SDS011;75016;52.400;16.880;2024-01-07T07:55:53;7.40;;;5.10;;
24335;SDS011;75016;52.400;16.880;2024-01-07T07:58:20;8.90;;;5.20;;
24335;SDS011;75016;52.400;16.880;2024-01-07T08:00:47;8.10;;;5.40;;
24335;SDS011;75016;52.400;16.880;2024-01-07T08:03:14;7.40;;;5.10;;
24335;SDS011;75016;52.400;16.880;2024-01-07T08:05:41;6.60;;;4.40;;
24335;SDS011;75016;52.400;16.880;2024-01-07T08:08:08;7.80;;;4.70;;
24335;SDS011;75016;52.400;16.880;2024-01-07T08:10:34;7.70;;;4.60;;
24335;SDS011;75016;52.400;16.880;2024-01-07T08:13:01;10.20;;;5.30;;
24335;SDS011;75016;52.400;16.880;2024-01-07T08:15:28;8.90;;;5.60;;
24335;SDS011;75016;52.400;16.880;2024-01-07T08:17:54;8.80;;;4.80;;
24335;SDS011;75016;52.400;16.880;2024-01-07T08:20:21;7.40;;;5.10;;
24335;SDS011;75016;52.400;16.880;2024-01-07T08:22:47;7.90;;;4.70;;
24335;SDS011;75016;52.400;16.880;2024-01-07T08:25:14;7.80;;;5.00;;
24335;SDS011;75016;52.400;16.880;2024-01-07T08:27:41;6.90;;;4.60;;
24335;SDS011;75016;52.400;16.880;2024-01-07T08:30:08;7.50;;;5.40;;
24335;SDS011;75016;52.400;16.880;2024-01-07T08:32:34;7.80;;;5.10;;
24335;SDS011;75016;52.400;16.880;2024-01-07T08:35:01;7.20;;;5.00;;
24335;SDS011;75016;52.400;16.880;2024-01-07T08:37:28;8.40;;;5.60;;
24335;SDS011;75016;52.400;16.880;2024-01-07T08:39:54;9.60;;;5.80;;
24335;SDS011;75016;52.400;16.880;2024-01-07T08:42:21;8.60;;;5.50;;
24335;SDS011;75016;52.400;16.880;2024-01-07T08:44:47;7.10;;;5.10;;
24335;SDS011;75016;52.400;16.880;2024-01-07T08:47:13;8.10;;;4.80;;
24335;SDS011;75016;52.400;16.880;2024-01-07T08:49:40;8.00;;;5.00;;
24335;SDS011;75016;52.400;16.880;2024-01-07T08:52:07;9.40;;;5.70;;
24335;SDS011;75016;52.400;16.880;2024-01-07T08:54:33;10.20;;;5.90;;
24335;SDS011;75016;52.400;16.880;2024-01-07T08:57:00;8.30;;;5.10;;
24335;SDS011;75016;52.400;16.880;2024-01-07T08:59:26;7.10;;;4.70;;
24335;SDS011;75016;52.400;16.880;2024-01-07T09:01:53;8.50;;;4.60;;
24335;SDS011;75016;52.400;16.880;2024-01-07T09:04:20;8.50;;;4.80;;
24335;SDS011;75016;52.400;16.880;2024-01-07T09:06:46;8.10;;;4.70;;
24335;SDS011;75016;52.400;16.880;2024-01-07T09:09:13;6.40;;;3.90;;
24335;SDS011;75016;52.400;16.880;2024-01-07T09:11:39;5.70;;;4.00;;
24335;SDS011;75016;52.400;16.880;2024-01-07T09:14:06;6.60;;;3.80;;
24335;SDS011;75016;52.400;16.880;2024-01-07T09:16:32;4.70;;;3.70;;
24335;SDS011;75016;52.400;16.880;2024-01-07T09:18:59;5.90;;;3.70;;
24335;SDS011;75016;52.400;16.880;2024-01-07T09:21:25;5.20;;;3.80;;
24335;SDS011;75016;52.400;16.880;2024-01-07T09:23:52;6.40;;;4.10;;
24335;SDS011;75016;52.400;16.880;2024-01-07T09:26:19;7.80;;;4.30;;
24335;SDS011;75016;52.400;16.880;2024-01-07T09:28:45;5.90;;;4.00;;
24335;SDS011;75016;52.400;16.880;2024-01-07T09:31:12;7.40;;;4.20;;
24335;SDS011;75016;52.400;16.880;2024-01-07T09:33:38;6.20;;;4.40;;
24335;SDS011;75016;52.400;16.880;2024-01-07T09:36:06;6.80;;;4.50;;
24335;SDS011;75016;52.400;16.880;2024-01-07T09:38:33;8.00;;;4.40;;
24335;SDS011;75016;52.400;16.880;2024-01-07T09:41:00;8.50;;;4.80;;
24335;SDS011;75016;52.400;16.880;2024-01-07T09:43:27;7.20;;;4.50;;
24335;SDS011;75016;52.400;16.880;2024-01-07T09:45:53;7.40;;;5.00;;
24335;SDS011;75016;52.400;16.880;2024-01-07T09:48:20;8.80;;;5.20;;
24335;SDS011;75016;52.400;16.880;2024-01-07T09:50:47;8.30;;;5.00;;
24335;SDS011;75016;52.400;16.880;2024-01-07T09:53:15;9.80;;;5.10;;
24335;SDS011;75016;52.400;16.880;2024-01-07T09:56:01;7.50;;;5.00;;
24335;SDS011;75016;52.400;16.880;2024-01-07T09:58:37;7.10;;;4.70;;
24335;SDS011;75016;52.400;16.880;2024-01-07T10:01:04;7.10;;;4.40;;
24335;SDS011;75016;52.400;16.880;2024-01-07T10:03:31;8.50;;;4.60;;
24335;SDS011;75016;52.400;16.880;2024-01-07T10:05:58;7.70;;;5.00;;
24335;SDS011;75016;52.400;16.880;2024-01-07T10:08:25;6.00;;;4.60;;
24335;SDS011;75016;52.400;16.880;2024-01-07T10:10:52;9.40;;;5.50;;
24335;SDS011;75016;52.400;16.880;2024-01-07T10:13:20;8.20;;;5.00;;
24335;SDS011;75016;52.400;16.880;2024-01-07T10:15:48;7.50;;;5.00;;
24335;SDS011;75016;52.400;16.880;2024-01-07T10:18:15;8.20;;;4.90;;
24335;SDS011;75016;52.400;16.880;2024-01-07T10:20:42;8.20;;;5.20;;
24335;SDS011;75016;52.400;16.880;2024-01-07T10:23:08;9.00;;;5.10;;
24335;SDS011;75016;52.400;16.880;2024-01-07T10:25:35;8.10;;;5.00;;
24335;SDS011;75016;52.400;16.880;2024-01-07T10:28:03;7.50;;;4.60;;
24335;SDS011;75016;52.400;16.880;2024-01-07T10:30:29;7.30;;;4.80;;
24335;SDS011;75016;52.400;16.880;2024-01-07T10:32:59;9.20;;;5.30;;
24335;SDS011;75016;52.400;16.880;2024-01-07T10:35:27;7.50;;;5.00;;
24335;SDS011;75016;52.400;16.880;2024-01-07T10:37:59;7.80;;;5.20;;
24335;SDS011;75016;52.400;16.880;2024-01-07T10:40:27;7.50;;;5.10;;
24335;SDS011;75016;52.400;16.880;2024-01-07T10:42:55;9.60;;;4.90;;
24335;SDS011;75016;52.400;16.880;2024-01-07T10:45:22;7.20;;;5.10;;
24335;SDS011;75016;52.400;16.880;2024-01-07T10:47:49;10.20;;;5.60;;
24335;SDS011;75016;52.400;16.880;2024-01-07T10:50:17;9.70;;;4.80;;
24335;SDS011;75016;52.400;16.880;2024-01-07T10:52:48;7.80;;;4.80;;
24335;SDS011;75016;52.400;16.880;2024-01-07T10:55:17;8.50;;;5.40;;
24335;SDS011;75016;52.400;16.880;2024-01-07T10:57:46;13.50;;;6.60;;
24335;SDS011;75016;52.400;16.880;2024-01-07T11:00:13;7.60;;;5.10;;
24335;SDS011;75016;52.400;16.880;2024-01-07T11:07:57;8.20;;;5.40;;
24335;SDS011;75016;52.400;16.880;2024-01-07T11:10:34;11.80;;;5.50;;
24335;SDS011;75016;52.400;16.880;2024-01-07T11:13:04;9.90;;;5.20;;
24335;SDS011;75016;52.400;16.880;2024-01-07T11:18:31;8.60;;;5.40;;
24335;SDS011;75016;52.400;16.880;2024-01-07T11:21:00;8.80;;;5.30;;
24335;SDS011;75016;52.400;16.880;2024-01-07T11:23:28;10.40;;;5.00;;
24335;SDS011;75016;52.400;16.880;2024-01-07T11:26:06;10.30;;;5.60;;
24335;SDS011;75016;52.400;16.880;2024-01-07T11:28:44;8.70;;;5.60;;
24335;SDS011;75016;52.400;16.880;2024-01-07T11:31:12;9.50;;;5.70;;
24335;SDS011;75016;52.400;16.880;2024-01-07T11:33:43;9.50;;;6.10;;
24335;SDS011;75016;52.400;16.880;2024-01-07T11:36:12;10.00;;;5.70;;
24335;SDS011;75016;52.400;16.880;2024-01-07T11:38:47;9.30;;;5.70;;
24335;SDS011;75016;52.400;16.880;2024-01-07T11:41:15;10.70;;;6.30;;
24335;SDS011;75016;52.400;16.880;2024-01-07T11:43:53;11.70;;;6.10;;
24335;SDS011;75016;52.400;16.880;2024-01-07T11:46:23;11.70;;;6.30;;
24335;SDS011;75016;52.400;16.880;2024-01-07T11:48:53;9.60;;;6.10;;
24335;SDS011;75016;52.400;16.880;2024-01-07T11:51:27;8.30;;;5.50;;
24335;SDS011;75016;52.400;16.880;2024-01-07T11:53:59;10.30;;;5.80;;
24335;SDS011;75016;52.400;16.880;2024-01-07T11:56:26;9.30;;;5.50;;
24335;SDS011;75016;52.400;16.880;2024-01-07T11:58:54;10.90;;;5.80;;
24335;SDS011;75016;52.400;16.880;2024-01-07T12:01:22;9.10;;;5.60;;
24335;SDS011;75016;52.400;16.880;2024-01-07T12:03:49;12.20;;;5.90;;
24335;SDS011;75016;52.400;16.880;2024-01-07T12:06:16;9.60;;;5.50;;
24335;SDS011;75016;52.400;16.880;2024-01-07T12:08:43;10.80;;;5.50;;
24335;SDS011;75016;52.400;16.880;2024-01-07T12:11:11;10.20;;;5.40;;
24335;SDS011;75016;52.400;16.880;2024-01-07T12:13:39;11.40;;;6.60;;
24335;SDS011;75016;52.400;16.880;2024-01-07T12:16:06;10.50;;;6.20;;
24335;SDS011;75016;52.400;16.880;2024-01-07T12:18:38;11.20;;;5.90;;
24335;SDS011;75016;52.400;16.880;2024-01-07T12:21:05;8.70;;;5.00;;
24335;SDS011;75016;52.400;16.880;2024-01-07T12:23:35;10.40;;;5.80;;
24335;SDS011;75016;52.400;16.880;2024-01-07T12:26:09;10.10;;;6.30;;
24335;SDS011;75016;52.400;16.880;2024-01-07T12:28:40;10.50;;;6.10;;
24335;SDS011;75016;52.400;16.880;2024-01-07T12:31:07;10.80;;;6.40;;
24335;SDS011;75016;52.400;16.880;2024-01-07T12:33:36;9.90;;;6.20;;
24335;SDS011;75016;52.400;16.880;2024-01-07T12:36:04;9.10;;;5.90;;
24335;SDS011;75016;52.400;16.880;2024-01-07T12:38:30;11.20;;;6.40;;
24335;SDS011;75016;52.400;16.880;2024-01-07T12:40:57;12.10;;;6.30;;
24335;SDS011;75016;52.400;16.880;2024-01-07T12:43:24;11.40;;;7.00;;
24335;SDS011;75016;52.400;16.880;2024-01-07T12:45:50;11.40;;;6.60;;
24335;SDS011;75016;52.400;16.880;2024-01-07T12:48:17;12.40;;;6.50;;
24335;SDS011;75016;52.400;16.880;2024-01-07T12:50:43;13.90;;;6.90;;
24335;SDS011;75016;52.400;16.880;2024-01-07T12:53:10;10.60;;;6.30;;
24335;SDS011;75016;52.400;16.880;2024-01-07T12:55:36;12.60;;;7.50;;
24335;SDS011;75016;52.400;16.880;2024-01-07T12:58:03;14.40;;;7.70;;
24335;SDS011;75016;52.400;16.880;2024-01-07T13:00:29;11.50;;;7.40;;
24335;SDS011;75016;52.400;16.880;2024-01-07T13:02:56;11.50;;;7.10;;
24335;SDS011;75016;52.400;16.880;2024-01-07T13:05:23;12.40;;;7.10;;
24335;SDS011;75016;52.400;16.880;2024-01-07T13:07:49;11.10;;;6.80;;
24335;SDS011;75016;52.400;16.880;2024-01-07T13:10:16;11.60;;;6.40;;
24335;SDS011;75016;52.400;16.880;2024-01-07T13:12:43;16.20;;;7.60;;
24335;SDS011;75016;52.400;16.880;2024-01-07T13:15:09;13.40;;;7.20;;
24335;SDS011;75016;52.400;16.880;2024-01-07T13:17:37;15.00;;;7.10;;
24335;SDS011;75016;52.400;16.880;2024-01-07T13:20:04;11.90;;;6.80;;
24335;SDS011;75016;52.400;16.880;2024-01-07T13:22:33;12.00;;;7.10;;
24335;SDS011;75016;52.400;16.880;2024-01-07T13:24:59;11.90;;;6.90;;
24335;SDS011;75016;52.400;16.880;2024-01-07T13:27:26;12.80;;;7.30;;
24335;SDS011;75016;52.400;16.880;2024-01-07T13:29:52;14.40;;;7.40;;
24335;SDS011;75016;52.400;16.880;2024-01-07T13:32:19;12.60;;;7.50;;
24335;SDS011;75016;52.400;16.880;2024-01-07T13:34:46;12.40;;;7.40;;
24335;SDS011;75016;52.400;16.880;2024-01-07T13:37:13;13.00;;;7.20;;
24335;SDS011;75016;52.400;16.880;2024-01-07T13:39:40;14.40;;;7.10;;
24335;SDS011;75016;52.400;16.880;2024-01-07T13:42:06;14.60;;;7.20;;
24335;SDS011;75016;52.400;16.880;2024-01-07T13:44:33;12.70;;;7.20;;
24335;SDS011;75016;52.400;16.880;2024-01-07T13:47:00;13.60;;;6.70;;
24335;SDS011;75016;52.400;16.880;2024-01-07T13:49:31;11.00;;;6.20;;
24335;SDS011;75016;52.400;16.880;2024-01-07T13:51:58;11.20;;;6.20;;
24335;SDS011;75016;52.400;16.880;2024-01-07T13:54:25;19.40;;;7.20;;
24335;SDS011;75016;52.400;16.880;2024-01-07T13:56:51;12.10;;;6.50;;
24335;SDS011;75016;52.400;16.880;2024-01-07T13:59:18;11.80;;;7.00;;
24335;SDS011;75016;52.400;16.880;2024-01-07T14:01:44;13.20;;;7.50;;
24335;SDS011;75016;52.400;16.880;2024-01-07T14:04:11;10.40;;;6.50;;
24335;SDS011;75016;52.400;16.880;2024-01-07T14:06:39;12.20;;;7.00;;
24335;SDS011;75016;52.400;16.880;2024-01-07T14:09:06;10.20;;;6.20;;
24335;SDS011;75016;52.400;16.880;2024-01-07T14:11:35;12.70;;;7.00;;
24335;SDS011;75016;52.400;16.880;2024-01-07T14:14:01;12.70;;;6.50;;
24335;SDS011;75016;52.400;16.880;2024-01-07T14:16:28;11.30;;;6.90;;
24335;SDS011;75016;52.400;16.880;2024-01-07T14:18:54;10.60;;;6.40;;
24335;SDS011;75016;52.400;16.880;2024-01-07T14:21:21;10.70;;;6.60;;
24335;SDS011;75016;52.400;16.880;2024-01-07T14:23:47;12.30;;;7.50;;
24335;SDS011;75016;52.400;16.880;2024-01-07T14:26:14;11.80;;;6.80;;
24335;SDS011;75016;52.400;16.880;2024-01-07T14:28:41;15.50;;;7.40;;
24335;SDS011;75016;52.400;16.880;2024-01-07T14:31:07;13.20;;;7.20;;
24335;SDS011;75016;52.400;16.880;2024-01-07T14:33:34;12.70;;;7.60;;
24335;SDS011;75016;52.400;16.880;2024-01-07T14:36:02;11.60;;;6.40;;
24335;SDS011;75016;52.400;16.880;2024-01-07T14:38:29;11.10;;;6.10;;